sensor_id;sensor_type;location;lat;lon;timestamp;P1;durP1;ratioP1;P2;durP2;ratioP2
30539;SDS011;17321;46.312;4.776;2024-01-30T00:01:51;13.68;;;8.55;;
30539;SDS011;17321;46.312;4.776;2024-01-30T00:04:17;15.93;;;8.52;;
30539;SDS011;17321;46.312;4.776;2024-01-30T00:06:43;14.80;;;7.80;;
30539;SDS011;17321;46.312;4.776;2024-01-30T00:09:09;17.58;;;8.38;;
30539;SDS011;17321;46.312;4.776;2024-01-30T00:11:36;12.35;;;8.88;;
30539;SDS011;17321;46.312;4.776;2024-01-30T00:14:02;11.75;;;7.72;;
30539;SDS011;17321;46.312;4.776;2024-01-30T00:16:28;15.13;;;8.18;;
30539;SDS011;17321;46.312;4.776;2024-01-30T00:18:54;10.85;;;7.45;;
30539;SDS011;17321;46.312;4.776;2024-01-30T00:21:20;18.05;;;8.40;;
30539;SDS011;17321;46.312;4.776;2024-01-30T00:23:47;11.93;;;7.80;;
30539;SDS011;17321;46.312;4.776;2024-01-30T00:26:13;11.30;;;7.20;;
30539;SDS011;17321;46.312;4.776;2024-01-30T00:28:42;13.75;;;7.65;;
30539;SDS011;17321;46.312;4.776;2024-01-30T00:31:08;11.90;;;7.13;;
30539;SDS011;17321;46.312;4.776;2024-01-30T00:33:38;14.32;;;7.60;;
30539;SDS011;17321;46.312;4.776;2024-01-30T00:36:05;12.27;;;7.10;;
30539;SDS011;17321;46.312;4.776;2024-01-30T00:38:31;14.05;;;8.35;;
30539;SDS011;17321;46.312;4.776;2024-01-30T00:40:57;13.45;;;7.78;;
30539;SDS011;17321;46.312;4.776;2024-01-30T00:43:23;11.27;;;7.15;;
30539;SDS011;17321;46.312;4.776;2024-01-30T00:45:50;12.25;;;8.05;;
30539;SDS011;17321;46.312;4.776;2024-01-30T00:48:20;12.77;;;8.27;;
30539;SDS011;17321;46.312;4.776;2024-01-30T00:50:46;15.30;;;7.90;;
30539;SDS011;17321;46.312;4.776;2024-01-30T00:53:12;11.65;;;7.72;;
30539;SDS011;17321;46.312;4.776;2024-01-30T00:55:38;13.23;;;8.02;;
30539;SDS011;17321;46.312;4.776;2024-01-30T00:58:05;13.93;;;7.63;;
30539;SDS011;17321;46.312;4.776;2024-01-30T01:00:31;14.20;;;7.28;;
30539;SDS011;17321;46.312;4.776;2024-01-30T01:03:00;10.80;;;7.47;;
30539;SDS011;17321;46.312;4.776;2024-01-30T01:05:26;11.80;;;6.85;;
30539;SDS011;17321;46.312;4.776;2024-01-30T01:07:53;12.60;;;7.03;;
30539;SDS011;17321;46.312;4.776;2024-01-30T01:10:19;11.13;;;7.18;;
30539;SDS011;17321;46.312;4.776;2024-01-30T01:12:45;11.43;;;6.95;;
30539;SDS011;17321;46.312;4.776;2024-01-30T01:15:11;15.73;;;7.47;;
30539;SDS011;17321;46.312;4.776;2024-01-30T01:17:38;14.88;;;7.75;;
30539;SDS011;17321;46.312;4.776;2024-01-30T01:20:04;20.27;;;7.97;;
30539;SDS011;17321;46.312;4.776;2024-01-30T01:22:31;10.18;;;6.95;;
30539;SDS011;17321;46.312;4.776;2024-01-30T01:24:57;10.48;;;6.65;;
30539;SDS011;17321;46.312;4.776;2024-01-30T01:27:24;14.20;;;7.63;;
30539;SDS011;17321;46.312;4.776;2024-01-30T01:29:50;12.32;;;7.40;;
30539;SDS011;17321;46.312;4.776;2024-01-30T01:32:16;11.60;;;7.20;;
30539;SDS011;17321;46.312;4.776;2024-01-30T01:34:42;12.63;;;7.38;;
30539;SDS011;17321;46.312;4.776;2024-01-30T01:37:08;11.98;;;7.63;;
30539;SDS011;17321;46.312;4.776;2024-01-30T01:39:34;13.77;;;7.55;;
30539;SDS011;17321;46.312;4.776;2024-01-30T01:42:00;16.08;;;7.82;;
30539;SDS011;17321;46.312;4.776;2024-01-30T01:44:26;12.55;;;7.50;;
30539;SDS011;17321;46.312;4.776;2024-01-30T01:46:52;15.82;;;8.45;;
30539;SDS011;17321;46.312;4.776;2024-01-30T01:49:19;19.67;;;7.72;;
30539;SDS011;17321;46.312;4.776;2024-01-30T01:51:45;11.32;;;7.55;;
30539;SDS011;17321;46.312;4.776;2024-01-30T01:54:12;15.02;;;8.57;;
30539;SDS011;17321;46.312;4.776;2024-01-30T01:56:39;14.25;;;7.95;;
30539;SDS011;17321;46.312;4.776;2024-01-30T01:59:07;9.93;;;6.88;;
30539;SDS011;17321;46.312;4.776;2024-01-30T02:01:33;11.70;;;7.40;;
30539;SDS011;17321;46.312;4.776;2024-01-30T02:04:00;13.90;;;7.40;;
30539;SDS011;17321;46.312;4.776;2024-01-30T02:06:26;11.45;;;6.95;;
30539;SDS011;17321;46.312;4.776;2024-01-30T02:08:52;12.90;;;7.63;;
30539;SDS011;17321;46.312;4.776;2024-01-30T02:11:19;11.02;;;7.28;;
30539;SDS011;17321;46.312;4.776;2024-01-30T02:13:46;18.52;;;8.00;;
30539;SDS011;17321;46.312;4.776;2024-01-30T02:16:12;10.50;;;7.70;;
30539;SDS011;17321;46.312;4.776;2024-01-30T02:18:38;14.48;;;7.43;;
30539;SDS011;17321;46.312;4.776;2024-01-30T02:21:08;12.98;;;7.22;;
30539;SDS011;17321;46.312;4.776;2024-01-30T02:23:34;14.18;;;8.10;;
30539;SDS011;17321;46.312;4.776;2024-01-30T02:26:00;17.05;;;7.85;;
30539;SDS011;17321;46.312;4.776;2024-01-30T02:28:26;11.50;;;7.53;;
30539;SDS011;17321;46.312;4.776;2024-01-30T02:30:52;17.30;;;7.68;;
30539;SDS011;17321;46.312;4.776;2024-01-30T02:33:19;9.38;;;6.80;;
30539;SDS011;17321;46.312;4.776;2024-01-30T02:35:47;9.63;;;7.05;;
30539;SDS011;17321;46.312;4.776;2024-01-30T02:38:13;17.17;;;8.30;;
30539;SDS011;17321;46.312;4.776;2024-01-30T02:40:39;15.35;;;7.63;;
30539;SDS011;17321;46.312;4.776;2024-01-30T02:43:05;15.68;;;8.52;;
30539;SDS011;17321;46.312;4.776;2024-01-30T02:45:31;15.25;;;7.53;;
30539;SDS011;17321;46.312;4.776;2024-01-30T02:47:57;16.30;;;7.88;;
30539;SDS011;17321;46.312;4.776;2024-01-30T02:50:23;11.65;;;7.68;;
30539;SDS011;17321;46.312;4.776;2024-01-30T02:52:49;15.23;;;8.38;;
30539;SDS011;17321;46.312;4.776;2024-01-30T02:55:15;10.05;;;7.53;;
30539;SDS011;17321;46.312;4.776;2024-01-30T02:57:43;12.95;;;7.60;;
30539;SDS011;17321;46.312;4.776;2024-01-30T03:00:09;12.80;;;8.00;;
30539;SDS011;17321;46.312;4.776;2024-01-30T03:02:35;10.40;;;6.97;;
30539;SDS011;17321;46.312;4.776;2024-01-30T03:05:01;15.18;;;8.07;;
30539;SDS011;17321;46.312;4.776;2024-01-30T03:07:28;18.65;;;8.10;;
30539;SDS011;17321;46.312;4.776;2024-01-30T03:09:54;9.70;;;6.85;;
30539;SDS011;17321;46.312;4.776;2024-01-30T03:12:21;14.02;;;8.13;;
30539;SDS011;17321;46.312;4.776;2024-01-30T03:14:47;15.93;;;8.30;;
30539;SDS011;17321;46.312;4.776;2024-01-30T03:17:13;16.40;;;7.28;;
30539;SDS011;17321;46.312;4.776;2024-01-30T03:19:39;15.43;;;8.35;;
30539;SDS011;17321;46.312;4.776;2024-01-30T03:22:05;15.30;;;7.68;;
30539;SDS011;17321;46.312;4.776;2024-01-30T03:24:31;15.15;;;8.25;;
30539;SDS011;17321;46.312;4.776;2024-01-30T03:26:57;15.85;;;7.93;;
30539;SDS011;17321;46.312;4.776;2024-01-30T03:29:23;14.82;;;8.38;;
30539;SDS011;17321;46.312;4.776;2024-01-30T03:31:49;13.10;;;7.93;;
30539;SDS011;17321;46.312;4.776;2024-01-30T03:34:15;15.63;;;7.88;;
30539;SDS011;17321;46.312;4.776;2024-01-30T03:36:41;13.18;;;7.40;;
30539;SDS011;17321;46.312;4.776;2024-01-30T03:39:07;16.13;;;7.88;;
30539;SDS011;17321;46.312;4.776;2024-01-30T03:41:34;15.43;;;8.30;;
30539;SDS011;17321;46.312;4.776;2024-01-30T03:43:59;13.52;;;7.90;;
30539;SDS011;17321;46.312;4.776;2024-01-30T03:46:25;12.25;;;8.07;;
30539;SDS011;17321;46.312;4.776;2024-01-30T03:48:51;12.23;;;7.90;;
30539;SDS011;17321;46.312;4.776;2024-01-30T03:51:18;14.73;;;7.80;;
30539;SDS011;17321;46.312;4.776;2024-01-30T03:53:44;14.18;;;8.05;;
30539;SDS011;17321;46.312;4.776;2024-01-30T03:56:13;13.48;;;7.78;;
30539;SDS011;17321;46.312;4.776;2024-01-30T03:58:39;13.15;;;7.70;;
30539;SDS011;17321;46.312;4.776;2024-01-30T04:01:05;10.95;;;7.65;;
30539;SDS011;17321;46.312;4.776;2024-01-30T04:03:31;14.77;;;7.88;;
30539;SDS011;17321;46.312;4.776;2024-01-30T04:05:57;13.40;;;7.25;;
30539;SDS011;17321;46.312;4.776;2024-01-30T04:08:23;13.60;;;7.75;;
30539;SDS011;17321;46.312;4.776;2024-01-30T04:10:49;14.57;;;7.75;;
30539;SDS011;17321;46.312;4.776;2024-01-30T04:13:15;14.32;;;8.43;;
30539;SDS011;17321;46.312;4.776;2024-01-30T04:15:41;14.85;;;7.82;;
30539;SDS011;17321;46.312;4.776;2024-01-30T04:18:07;15.10;;;7.75;;
30539;SDS011;17321;46.312;4.776;2024-01-30T04:20:33;14.07;;;8.13;;
30539;SDS011;17321;46.312;4.776;2024-01-30T04:22:59;13.43;;;8.00;;
30539;SDS011;17321;46.312;4.776;2024-01-30T04:25:25;15.77;;;8.45;;
30539;SDS011;17321;46.312;4.776;2024-01-30T04:27:51;14.38;;;8.13;;
30539;SDS011;17321;46.312;4.776;2024-01-30T04:30:17;11.82;;;7.82;;
30539;SDS011;17321;46.312;4.776;2024-01-30T04:32:43;17.45;;;8.98;;
30539;SDS011;17321;46.312;4.776;2024-01-30T04:35:09;14.98;;;9.40;;
30539;SDS011;17321;46.312;4.776;2024-01-30T04:37:35;11.82;;;8.05;;
30539;SDS011;17321;46.312;4.776;2024-01-30T04:40:02;15.90;;;9.00;;
30539;SDS011;17321;46.312;4.776;2024-01-30T04:42:28;12.98;;;7.43;;
30539;SDS011;17321;46.312;4.776;2024-01-30T04:44:54;17.80;;;8.07;;
30539;SDS011;17321;46.312;4.776;2024-01-30T04:47:20;15.63;;;8.10;;
30539;SDS011;17321;46.312;4.776;2024-01-30T04:49:46;16.33;;;8.25;;
30539;SDS011;17321;46.312;4.776;2024-01-30T04:52:12;19.58;;;8.45;;
30539;SDS011;17321;46.312;4.776;2024-01-30T04:54:38;14.75;;;7.60;;
30539;SDS011;17321;46.312;4.776;2024-01-30T04:57:04;18.40;;;8.63;;
30539;SDS011;17321;46.312;4.776;2024-01-30T04:59:34;12.55;;;8.23;;
30539;SDS011;17321;46.312;4.776;2024-01-30T05:02:00;13.00;;;8.05;;
30539;SDS011;17321;46.312;4.776;2024-01-30T05:04:26;11.98;;;7.35;;
30539;SDS011;17321;46.312;4.776;2024-01-30T05:06:52;12.00;;;8.52;;
30539;SDS011;17321;46.312;4.776;2024-01-30T05:09:18;16.00;;;8.68;;
30539;SDS011;17321;46.312;4.776;2024-01-30T05:11:44;14.15;;;8.88;;
30539;SDS011;17321;46.312;4.776;2024-01-30T05:14:10;13.80;;;8.30;;
30539;SDS011;17321;46.312;4.776;2024-01-30T05:16:37;14.35;;;8.65;;
30539;SDS011;17321;46.312;4.776;2024-01-30T05:19:03;12.15;;;7.38;;
30539;SDS011;17321;46.312;4.776;2024-01-30T05:21:29;12.98;;;7.50;;
30539;SDS011;17321;46.312;4.776;2024-01-30T05:23:55;19.27;;;8.13;;
30539;SDS011;17321;46.312;4.776;2024-01-30T05:26:21;12.80;;;7.85;;
30539;SDS011;17321;46.312;4.776;2024-01-30T05:28:48;13.18;;;7.65;;
30539;SDS011;17321;46.312;4.776;2024-01-30T05:31:14;12.95;;;7.40;;
30539;SDS011;17321;46.312;4.776;2024-01-30T05:33:40;11.50;;;8.38;;
30539;SDS011;17321;46.312;4.776;2024-01-30T05:36:06;14.70;;;7.97;;
30539;SDS011;17321;46.312;4.776;2024-01-30T05:38:32;13.68;;;8.27;;
30539;SDS011;17321;46.312;4.776;2024-01-30T05:40:58;13.48;;;8.73;;
30539;SDS011;17321;46.312;4.776;2024-01-30T05:43:24;14.57;;;8.60;;
30539;SDS011;17321;46.312;4.776;2024-01-30T05:45:50;12.68;;;7.45;;
30539;SDS011;17321;46.312;4.776;2024-01-30T05:48:18;15.13;;;7.68;;
30539;SDS011;17321;46.312;4.776;2024-01-30T05:50:44;10.60;;;8.23;;
30539;SDS011;17321;46.312;4.776;2024-01-30T05:53:10;11.90;;;8.02;;
30539;SDS011;17321;46.312;4.776;2024-01-30T05:55:36;17.55;;;8.18;;
30539;SDS011;17321;46.312;4.776;2024-01-30T05:58:02;15.15;;;9.05;;
30539;SDS011;17321;46.312;4.776;2024-01-30T06:00:28;14.20;;;9.32;;
30539;SDS011;17321;46.312;4.776;2024-01-30T06:02:55;19.17;;;10.25;;
30539;SDS011;17321;46.312;4.776;2024-01-30T06:05:21;20.10;;;11.32;;
30539;SDS011;17321;46.312;4.776;2024-01-30T06:07:47;15.32;;;9.50;;
30539;SDS011;17321;46.312;4.776;2024-01-30T06:10:13;13.52;;;8.85;;
30539;SDS011;17321;46.312;4.776;2024-01-30T06:12:39;16.77;;;10.10;;
30539;SDS011;17321;46.312;4.776;2024-01-30T06:15:05;13.65;;;9.50;;
30539;SDS011;17321;46.312;4.776;2024-01-30T06:17:32;17.75;;;9.85;;
30539;SDS011;17321;46.312;4.776;2024-01-30T06:19:58;20.25;;;11.95;;
30539;SDS011;17321;46.312;4.776;2024-01-30T06:22:24;16.83;;;10.98;;
30539;SDS011;17321;46.312;4.776;2024-01-30T06:24:50;20.13;;;11.02;;
30539;SDS011;17321;46.312;4.776;2024-01-30T06:27:16;16.80;;;11.75;;
30539;SDS011;17321;46.312;4.776;2024-01-30T06:29:45;18.35;;;11.48;;
30539;SDS011;17321;46.312;4.776;2024-01-30T06:32:11;18.20;;;11.38;;
30539;SDS011;17321;46.312;4.776;2024-01-30T06:34:37;28.42;;;11.88;;
30539;SDS011;17321;46.312;4.776;2024-01-30T06:37:05;20.00;;;10.48;;
30539;SDS011;17321;46.312;4.776;2024-01-30T06:39:31;16.58;;;11.60;;
30539;SDS011;17321;46.312;4.776;2024-01-30T06:41:57;17.85;;;11.63;;
30539;SDS011;17321;46.312;4.776;2024-01-30T06:44:23;19.75;;;12.57;;
30539;SDS011;17321;46.312;4.776;2024-01-30T06:46:49;17.65;;;11.68;;
30539;SDS011;17321;46.312;4.776;2024-01-30T06:49:15;20.92;;;12.20;;
30539;SDS011;17321;46.312;4.776;2024-01-30T06:51:41;17.95;;;11.50;;
30539;SDS011;17321;46.312;4.776;2024-01-30T06:54:07;24.67;;;12.82;;
30539;SDS011;17321;46.312;4.776;2024-01-30T06:56:33;21.02;;;12.25;;
30539;SDS011;17321;46.312;4.776;2024-01-30T06:58:59;29.10;;;16.42;;
30539;SDS011;17321;46.312;4.776;2024-01-30T07:01:28;34.95;;;16.33;;
30539;SDS011;17321;46.312;4.776;2024-01-30T07:06:20;27.17;;;13.68;;
30539;SDS011;17321;46.312;4.776;2024-01-30T07:08:47;25.52;;;13.52;;
30539;SDS011;17321;46.312;4.776;2024-01-30T07:11:19;24.33;;;11.63;;
30539;SDS011;17321;46.312;4.776;2024-01-30T07:13:50;15.73;;;10.07;;
30539;SDS011;17321;46.312;4.776;2024-01-30T07:16:16;19.50;;;10.93;;
30539;SDS011;17321;46.312;4.776;2024-01-30T07:18:43;23.50;;;11.48;;
30539;SDS011;17321;46.312;4.776;2024-01-30T07:21:09;21.40;;;10.10;;
30539;SDS011;17321;46.312;4.776;2024-01-30T07:23:35;20.52;;;11.32;;
30539;SDS011;17321;46.312;4.776;2024-01-30T07:26:03;18.17;;;11.73;;
30539;SDS011;17321;46.312;4.776;2024-01-30T07:28:30;19.02;;;10.55;;
30539;SDS011;17321;46.312;4.776;2024-01-30T07:30:55;19.33;;;11.70;;
30539;SDS011;17321;46.312;4.776;2024-01-30T07:33:21;17.75;;;12.15;;
30539;SDS011;17321;46.312;4.776;2024-01-30T07:35:48;20.33;;;12.15;;
30539;SDS011;17321;46.312;4.776;2024-01-30T07:38:14;18.08;;;11.15;;
30539;SDS011;17321;46.312;4.776;2024-01-30T07:40:40;19.58;;;10.90;;
30539;SDS011;17321;46.312;4.776;2024-01-30T07:43:06;20.67;;;12.65;;
30539;SDS011;17321;46.312;4.776;2024-01-30T07:45:33;14.48;;;11.82;;
30539;SDS011;17321;46.312;4.776;2024-01-30T07:47:59;20.20;;;11.20;;
30539;SDS011;17321;46.312;4.776;2024-01-30T07:50:25;16.70;;;11.23;;
30539;SDS011;17321;46.312;4.776;2024-01-30T07:52:51;19.17;;;10.40;;
30539;SDS011;17321;46.312;4.776;2024-01-30T07:55:20;19.85;;;11.05;;
30539;SDS011;17321;46.312;4.776;2024-01-30T07:57:49;16.25;;;10.45;;
30539;SDS011;17321;46.312;4.776;2024-01-30T08:00:16;16.67;;;11.23;;
30539;SDS011;17321;46.312;4.776;2024-01-30T08:02:42;18.80;;;11.02;;
30539;SDS011;17321;46.312;4.776;2024-01-30T08:05:08;18.90;;;11.68;;
30539;SDS011;17321;46.312;4.776;2024-01-30T08:07:36;19.60;;;11.50;;
30539;SDS011;17321;46.312;4.776;2024-01-30T08:10:02;17.90;;;12.00;;
30539;SDS011;17321;46.312;4.776;2024-01-30T08:12:28;19.73;;;14.02;;
30539;SDS011;17321;46.312;4.776;2024-01-30T08:14:54;18.15;;;12.07;;
30539;SDS011;17321;46.312;4.776;2024-01-30T08:17:20;19.58;;;12.13;;
30539;SDS011;17321;46.312;4.776;2024-01-30T08:19:46;21.83;;;13.02;;
30539;SDS011;17321;46.312;4.776;2024-01-30T08:22:12;20.95;;;13.82;;
30539;SDS011;17321;46.312;4.776;2024-01-30T08:24:38;33.95;;;16.20;;
30539;SDS011;17321;46.312;4.776;2024-01-30T08:27:06;26.77;;;15.50;;
30539;SDS011;17321;46.312;4.776;2024-01-30T08:29:34;37.25;;;15.48;;
30539;SDS011;17321;46.312;4.776;2024-01-30T08:32:00;25.42;;;16.05;;
30539;SDS011;17321;46.312;4.776;2024-01-30T08:34:26;22.42;;;12.98;;
30539;SDS011;17321;46.312;4.776;2024-01-30T08:36:52;19.67;;;12.05;;
30539;SDS011;17321;46.312;4.776;2024-01-30T08:39:19;20.77;;;12.68;;
30539;SDS011;17321;46.312;4.776;2024-01-30T08:41:45;16.98;;;10.85;;
30539;SDS011;17321;46.312;4.776;2024-01-30T08:44:11;16.67;;;11.85;;
30539;SDS011;17321;46.312;4.776;2024-01-30T08:46:37;18.60;;;11.52;;
30539;SDS011;17321;46.312;4.776;2024-01-30T08:49:03;25.05;;;13.38;;
30539;SDS011;17321;46.312;4.776;2024-01-30T08:53:58;19.83;;;12.00;;
30539;SDS011;17321;46.312;4.776;2024-01-30T08:56:25;21.98;;;13.95;;
30539;SDS011;17321;46.312;4.776;2024-01-30T08:58:51;19.00;;;13.43;;
30539;SDS011;17321;46.312;4.776;2024-01-30T09:01:17;25.83;;;16.13;;
30539;SDS011;17321;46.312;4.776;2024-01-30T09:03:43;23.50;;;14.25;;
30539;SDS011;17321;46.312;4.776;2024-01-30T09:06:11;21.05;;;14.05;;
30539;SDS011;17321;46.312;4.776;2024-01-30T09:08:37;22.90;;;14.13;;
30539;SDS011;17321;46.312;4.776;2024-01-30T09:11:13;20.63;;;13.23;;
30539;SDS011;17321;46.312;4.776;2024-01-30T09:13:39;20.75;;;13.63;;
30539;SDS011;17321;46.312;4.776;2024-01-30T09:16:05;20.40;;;12.93;;
30539;SDS011;17321;46.312;4.776;2024-01-30T09:18:31;21.35;;;12.48;;
30539;SDS011;17321;46.312;4.776;2024-01-30T09:20:57;24.67;;;12.80;;
30539;SDS011;17321;46.312;4.776;2024-01-30T09:23:23;19.27;;;12.73;;
30539;SDS011;17321;46.312;4.776;2024-01-30T09:25:49;19.00;;;11.93;;
30539;SDS011;17321;46.312;4.776;2024-01-30T09:28:16;26.85;;;12.23;;
30539;SDS011;17321;46.312;4.776;2024-01-30T09:30:42;18.70;;;12.35;;
30539;SDS011;17321;46.312;4.776;2024-01-30T09:33:09;21.08;;;11.90;;
30539;SDS011;17321;46.312;4.776;2024-01-30T09:35:35;18.25;;;12.18;;
30539;SDS011;17321;46.312;4.776;2024-01-30T09:38:02;17.35;;;12.07;;
30539;SDS011;17321;46.312;4.776;2024-01-30T09:40:28;20.02;;;12.15;;
30539;SDS011;17321;46.312;4.776;2024-01-30T09:42:54;23.50;;;11.90;;
30539;SDS011;17321;46.312;4.776;2024-01-30T09:45:24;19.35;;;12.48;;
30539;SDS011;17321;46.312;4.776;2024-01-30T09:47:50;31.23;;;11.70;;
30539;SDS011;17321;46.312;4.776;2024-01-30T09:50:16;19.95;;;12.50;;
30539;SDS011;17321;46.312;4.776;2024-01-30T09:52:43;15.73;;;10.70;;
30539;SDS011;17321;46.312;4.776;2024-01-30T09:55:09;18.20;;;11.02;;
30539;SDS011;17321;46.312;4.776;2024-01-30T09:57:36;20.73;;;12.13;;
30539;SDS011;17321;46.312;4.776;2024-01-30T10:00:02;24.00;;;12.23;;
30539;SDS011;17321;46.312;4.776;2024-01-30T10:02:30;18.58;;;11.30;;
30539;SDS011;17321;46.312;4.776;2024-01-30T10:04:56;22.08;;;11.52;;
30539;SDS011;17321;46.312;4.776;2024-01-30T10:07:22;20.42;;;13.10;;
30539;SDS011;17321;46.312;4.776;2024-01-30T10:09:48;22.10;;;12.85;;
30539;SDS011;17321;46.312;4.776;2024-01-30T10:12:15;20.25;;;12.65;;
30539;SDS011;17321;46.312;4.776;2024-01-30T10:14:42;25.20;;;11.93;;
30539;SDS011;17321;46.312;4.776;2024-01-30T10:17:08;24.63;;;13.30;;
30539;SDS011;17321;46.312;4.776;2024-01-30T10:19:38;17.63;;;12.52;;
30539;SDS011;17321;46.312;4.776;2024-01-30T10:22:04;21.83;;;12.70;;
30539;SDS011;17321;46.312;4.776;2024-01-30T10:24:30;22.40;;;12.88;;
30539;SDS011;17321;46.312;4.776;2024-01-30T10:26:56;22.38;;;13.18;;
30539;SDS011;17321;46.312;4.776;2024-01-30T10:29:23;21.90;;;14.07;;
30539;SDS011;17321;46.312;4.776;2024-01-30T10:32:02;19.73;;;12.50;;
30539;SDS011;17321;46.312;4.776;2024-01-30T10:34:28;20.25;;;13.05;;
30539;SDS011;17321;46.312;4.776;2024-01-30T10:37:06;20.08;;;12.88;;
30539;SDS011;17321;46.312;4.776;2024-01-30T10:39:37;19.15;;;12.07;;
30539;SDS011;17321;46.312;4.776;2024-01-30T10:42:04;18.13;;;11.75;;
30539;SDS011;17321;46.312;4.776;2024-01-30T10:44:34;24.90;;;12.80;;
30539;SDS011;17321;46.312;4.776;2024-01-30T10:47:03;19.25;;;11.65;;
30539;SDS011;17321;46.312;4.776;2024-01-30T10:49:31;18.45;;;11.15;;
30539;SDS011;17321;46.312;4.776;2024-01-30T10:51:58;19.70;;;10.90;;
30539;SDS011;17321;46.312;4.776;2024-01-30T10:54:24;23.15;;;11.95;;
30539;SDS011;17321;46.312;4.776;2024-01-30T10:56:50;21.35;;;10.90;;
30539;SDS011;17321;46.312;4.776;2024-01-30T10:59:16;19.02;;;10.88;;
30539;SDS011;17321;46.312;4.776;2024-01-30T11:01:43;18.70;;;11.25;;
30539;SDS011;17321;46.312;4.776;2024-01-30T11:04:09;15.07;;;9.85;;
30539;SDS011;17321;46.312;4.776;2024-01-30T11:06:40;22.17;;;10.43;;
30539;SDS011;17321;46.312;4.776;2024-01-30T11:09:10;16.23;;;9.88;;
30539;SDS011;17321;46.312;4.776;2024-01-30T11:14:25;20.45;;;9.48;;
30539;SDS011;17321;46.312;4.776;2024-01-30T11:16:52;11.88;;;8.60;;
30539;SDS011;17321;46.312;4.776;2024-01-30T11:19:24;16.55;;;10.00;;
30539;SDS011;17321;46.312;4.776;2024-01-30T11:21:51;14.30;;;10.15;;
30539;SDS011;17321;46.312;4.776;2024-01-30T11:24:21;19.48;;;10.75;;
30539;SDS011;17321;46.312;4.776;2024-01-30T11:26:48;17.15;;;10.32;;
30539;SDS011;17321;46.312;4.776;2024-01-30T11:29:16;12.82;;;10.07;;
30539;SDS011;17321;46.312;4.776;2024-01-30T11:31:51;19.58;;;9.70;;
30539;SDS011;17321;46.312;4.776;2024-01-30T11:34:18;21.88;;;10.20;;
30539;SDS011;17321;46.312;4.776;2024-01-30T11:36:44;13.90;;;9.40;;
30539;SDS011;17321;46.312;4.776;2024-01-30T11:39:11;14.77;;;10.13;;
30539;SDS011;17321;46.312;4.776;2024-01-30T11:41:37;15.55;;;9.35;;
30539;SDS011;17321;46.312;4.776;2024-01-30T11:44:04;14.90;;;8.85;;
30539;SDS011;17321;46.312;4.776;2024-01-30T11:46:30;19.10;;;8.48;;
30539;SDS011;17321;46.312;4.776;2024-01-30T11:48:56;19.02;;;8.63;;
30539;SDS011;17321;46.312;4.776;2024-01-30T11:51:22;11.65;;;8.60;;
30539;SDS011;17321;46.312;4.776;2024-01-30T11:53:51;16.55;;;8.27;;
30539;SDS011;17321;46.312;4.776;2024-01-30T11:56:17;10.60;;;8.02;;
30539;SDS011;17321;46.312;4.776;2024-01-30T11:58:43;15.15;;;8.27;;
30539;SDS011;17321;46.312;4.776;2024-01-30T12:01:10;16.55;;;9.70;;
30539;SDS011;17321;46.312;4.776;2024-01-30T12:03:36;16.67;;;10.40;;
30539;SDS011;17321;46.312;4.776;2024-01-30T12:06:02;15.57;;;9.30;;
30539;SDS011;17321;46.312;4.776;2024-01-30T12:08:28;12.32;;;8.32;;
30539;SDS011;17321;46.312;4.776;2024-01-30T12:10:55;15.20;;;8.40;;
30539;SDS011;17321;46.312;4.776;2024-01-30T12:13:22;16.17;;;9.52;;
30539;SDS011;17321;46.312;4.776;2024-01-30T12:15:48;14.32;;;9.35;;
30539;SDS011;17321;46.312;4.776;2024-01-30T12:18:14;21.58;;;8.65;;
30539;SDS011;17321;46.312;4.776;2024-01-30T12:20:40;16.20;;;8.80;;
30539;SDS011;17321;46.312;4.776;2024-01-30T12:23:06;12.20;;;9.10;;
30539;SDS011;17321;46.312;4.776;2024-01-30T12:25:32;16.15;;;10.50;;
30539;SDS011;17321;46.312;4.776;2024-01-30T12:27:58;13.38;;;9.77;;
30539;SDS011;17321;46.312;4.776;2024-01-30T12:30:24;17.60;;;10.13;;
30539;SDS011;17321;46.312;4.776;2024-01-30T12:32:50;16.92;;;10.88;;
30539;SDS011;17321;46.312;4.776;2024-01-30T12:35:17;22.27;;;10.65;;
30539;SDS011;17321;46.312;4.776;2024-01-30T12:37:44;21.65;;;11.18;;
30539;SDS011;17321;46.312;4.776;2024-01-30T12:40:11;18.42;;;10.48;;
30539;SDS011;17321;46.312;4.776;2024-01-30T12:42:39;15.25;;;10.18;;
30539;SDS011;17321;46.312;4.776;2024-01-30T12:45:06;29.30;;;10.48;;
30539;SDS011;17321;46.312;4.776;2024-01-30T12:47:33;18.85;;;10.55;;
30539;SDS011;17321;46.312;4.776;2024-01-30T12:49:59;19.30;;;10.07;;
30539;SDS011;17321;46.312;4.776;2024-01-30T12:52:25;14.27;;;9.63;;
30539;SDS011;17321;46.312;4.776;2024-01-30T12:54:51;15.00;;;10.40;;
30539;SDS011;17321;46.312;4.776;2024-01-30T12:57:18;14.35;;;9.15;;
30539;SDS011;17321;46.312;4.776;2024-01-30T12:59:44;23.38;;;10.02;;
30539;SDS011;17321;46.312;4.776;2024-01-30T13:02:11;12.45;;;8.95;;
30539;SDS011;17321;46.312;4.776;2024-01-30T13:04:37;17.83;;;8.68;;
30539;SDS011;17321;46.312;4.776;2024-01-30T13:07:03;18.35;;;9.13;;
30539;SDS011;17321;46.312;4.776;2024-01-30T13:09:30;17.20;;;8.80;;
30539;SDS011;17321;46.312;4.776;2024-01-30T13:11:56;13.25;;;8.90;;
30539;SDS011;17321;46.312;4.776;2024-01-30T13:14:22;14.13;;;9.50;;
30539;SDS011;17321;46.312;4.776;2024-01-30T13:16:48;10.95;;;7.70;;
30539;SDS011;17321;46.312;4.776;2024-01-30T13:19:14;14.43;;;8.68;;
30539;SDS011;17321;46.312;4.776;2024-01-30T13:21:41;18.67;;;8.02;;
30539;SDS011;17321;46.312;4.776;2024-01-30T13:24:07;12.88;;;7.78;;
30539;SDS011;17321;46.312;4.776;2024-01-30T13:26:34;11.63;;;7.30;;
30539;SDS011;17321;46.312;4.776;2024-01-30T13:29:00;11.63;;;7.68;;
30539;SDS011;17321;46.312;4.776;2024-01-30T13:31:27;11.77;;;7.40;;
30539;SDS011;17321;46.312;4.776;2024-01-30T13:33:53;11.88;;;7.65;;
30539;SDS011;17321;46.312;4.776;2024-01-30T13:36:19;13.13;;;7.72;;
30539;SDS011;17321;46.312;4.776;2024-01-30T13:38:46;9.82;;;7.30;;
30539;SDS011;17321;46.312;4.776;2024-01-30T13:41:12;16.70;;;8.63;;
30539;SDS011;17321;46.312;4.776;2024-01-30T13:43:38;11.32;;;8.18;;
30539;SDS011;17321;46.312;4.776;2024-01-30T13:46:04;13.05;;;7.93;;
30539;SDS011;17321;46.312;4.776;2024-01-30T13:48:30;35.78;;;9.90;;
30539;SDS011;17321;46.312;4.776;2024-01-30T13:50:57;17.85;;;8.07;;
30539;SDS011;17321;46.312;4.776;2024-01-30T13:53:23;12.30;;;8.85;;
30539;SDS011;17321;46.312;4.776;2024-01-30T13:55:49;18.52;;;8.82;;
30539;SDS011;17321;46.312;4.776;2024-01-30T13:58:15;14.65;;;8.35;;
30539;SDS011;17321;46.312;4.776;2024-01-30T14:00:41;13.55;;;7.45;;
30539;SDS011;17321;46.312;4.776;2024-01-30T14:03:07;14.43;;;7.90;;
30539;SDS011;17321;46.312;4.776;2024-01-30T14:05:33;15.80;;;8.50;;
30539;SDS011;17321;46.312;4.776;2024-01-30T14:08:00;14.48;;;8.43;;
30539;SDS011;17321;46.312;4.776;2024-01-30T14:10:26;19.33;;;8.88;;
30539;SDS011;17321;46.312;4.776;2024-01-30T14:12:52;16.52;;;9.25;;
30539;SDS011;17321;46.312;4.776;2024-01-30T14:15:18;17.95;;;8.82;;
30539;SDS011;17321;46.312;4.776;2024-01-30T14:17:44;13.90;;;9.80;;
30539;SDS011;17321;46.312;4.776;2024-01-30T14:20:13;15.43;;;9.27;;
30539;SDS011;17321;46.312;4.776;2024-01-30T14:22:39;14.25;;;8.57;;
30539;SDS011;17321;46.312;4.776;2024-01-30T14:25:05;19.77;;;9.05;;
30539;SDS011;17321;46.312;4.776;2024-01-30T14:27:31;12.73;;;8.73;;
30539;SDS011;17321;46.312;4.776;2024-01-30T14:29:58;13.93;;;8.77;;
30539;SDS011;17321;46.312;4.776;2024-01-30T14:32:24;13.32;;;8.77;;